Time;durP1;ratioP1;P1;durP2;ratioP2;P2;SDS_P1;SDS_P2;PMS_P1;PMS_P2;Temp;Humidity;BMP_temperature;BMP_pressure;BME280_temperature;BME280_humidity;BME280_pressure;Samples;Min_cycle;Max_cycle;Signal;HPM_P1;HPM_P2
2023/12/29 00:01:33;;;;;;;0.90;0.70;;;9.40;1.00;;;;;;5085172;28;20131;-87
2023/12/29 00:03:59;;;;;;;0.35;0.35;;;9.50;99.90;;;;;;5085197;28;20051;-87
2023/12/29 00:06:25;;;;;;;4.20;0.65;;;9.70;99.90;;;;;;5103595;28;20109;-87
2023/12/29 00:08:51;;;;;;;0.32;0.32;;;9.60;99.90;;;;;;5103642;28;20051;-87
2023/12/29 00:11:20;;;;;;;0.20;0.20;;;9.60;99.90;;;;;;5103286;28;20050;-87
2023/12/29 00:13:46;;;;;;;0.20;0.20;;;9.60;99.90;;;;;;5103653;28;20047;-87
2023/12/29 00:16:12;;;;;;;0.03;0.03;;;9.70;52.00;;;;;;5103473;28;20496;-87
2023/12/29 00:18:38;;;;;;;2.70;1.30;;;9.70;1.00;;;;;;5085096;28;20551;-87
2023/12/29 00:21:04;;;;;;;0.25;0.22;;;10.50;1.00;;;;;;5103805;28;20099;-87
2023/12/29 00:23:30;;;;;;;0.52;0.52;;;9.70;99.90;;;;;;5084680;28;20067;-86
2023/12/29 00:25:56;;;;;;;1.38;0.93;;;9.80;99.90;;;;;;5102291;28;20106;-86
2023/12/29 00:28:21;;;;;;;2.20;1.33;;;9.70;99.90;;;;;;5083965;28;20389;-87
2023/12/29 00:30:47;;;;;;;1.67;0.45;;;9.60;99.90;;;;;;5102030;28;20050;-86
2023/12/29 00:33:13;;;;;;;0.00;0.00;;;9.60;1.00;;;;;;5102685;28;20078;-87
2023/12/29 00:35:41;;;;;;;0.20;0.20;;;9.60;1.00;;;;;;5085679;28;20039;-87
2023/12/29 00:38:07;;;;;;;0.45;0.38;;;11.00;99.90;;;;;;5105771;28;20090;-87
2023/12/29 00:40:33;;;;;;;0.40;0.28;;;9.70;99.90;;;;;;5105143;28;20071;-86
2023/12/29 00:43:00;;;;;;;0.00;0.00;;;9.80;1.00;;;;;;5105237;28;20040;-86
2023/12/29 00:45:29;;;;;;;0.90;0.65;;;10.40;99.90;;;;;;5086627;28;20086;-87
2023/12/29 00:47:55;;;;;;;0.00;0.00;;;9.70;99.90;;;;;;5086803;28;20189;-87
2023/12/29 00:50:20;;;;;;;4.07;0.98;;;9.80;1.00;;;;;;5104839;28;20126;-87
2023/12/29 00:52:46;;;;;;;0.15;0.15;;;9.90;99.90;;;;;;5105142;28;20123;-87
2023/12/29 00:55:12;;;;;;;0.10;0.10;;;9.90;99.90;;;;;;5086544;28;20051;-87
2023/12/29 00:57:37;;;;;;;0.00;0.00;;;9.80;1.00;;;;;;5087397;28;20118;-87
2023/12/29 01:00:03;;;;;;;0.30;0.30;;;9.70;99.90;;;;;;5087310;28;20071;-87
2023/12/29 01:02:29;;;;;;;0.45;0.43;;;9.60;1.00;;;;;;5105942;28;20124;-88
2023/12/29 01:04:55;;;;;;;2.40;1.80;;;9.40;99.90;;;;;;5106324;28;20098;-88
2023/12/29 01:07:20;;;;;;;0.70;0.45;;;9.40;1.00;;;;;;5087121;28;20488;-87
2023/12/29 01:09:46;;;;;;;1.23;0.28;;;10.10;99.90;;;;;;5096251;28;20054;-86
2023/12/29 01:12:11;;;;;;;0.32;0.20;;;9.20;99.90;;;;;;5094098;28;20056;-86
2023/12/29 01:14:37;;;;;;;0.00;0.00;;;9.10;99.90;;;;;;5088550;28;20138;-86
2023/12/29 01:17:03;;;;;;;11.15;1.45;;;9.10;99.90;;;;;;5087127;28;20057;-86
2023/12/29 01:19:28;;;;;;;0.00;0.00;;;9.20;99.90;;;;;;5105426;28;20082;-87
2023/12/29 01:21:54;;;;;;;0.30;0.30;;;9.10;99.90;;;;;;5105637;28;20457;-88
2023/12/29 01:24:19;;;;;;;0.00;0.00;;;9.00;99.90;;;;;;5087149;28;20043;-88
2023/12/29 01:26:45;;;;;;;2.42;1.48;;;9.10;99.90;;;;;;5087804;28;20074;-88
2023/12/29 01:29:11;;;;;;;1.10;0.40;;;9.10;99.90;;;;;;5086282;28;20130;-87
2023/12/29 01:31:36;;;;;;;0.00;0.00;;;9.10;99.90;;;;;;5103399;28;20679;-88
2023/12/29 01:34:02;;;;;;;1.23;0.95;;;9.20;99.90;;;;;;5096463;28;20040;-88
2023/12/29 01:36:27;;;;;;;0.65;0.65;;;9.20;99.90;;;;;;5086061;28;20401;-88
2023/12/29 01:38:53;;;;;;;0.75;0.52;;;9.20;99.90;;;;;;5104504;28;20035;-88
2023/12/29 01:41:22;;;;;;;11.70;1.40;;;9.10;99.90;;;;;;5088769;28;20084;-88
2023/12/29 01:44:19;;;;;;;0.50;0.50;;;9.10;99.90;;;;;;5104626;28;20116;-89
2023/12/29 01:46:46;;;;;;;1.35;0.52;;;9.10;99.90;;;;;;5103562;28;20050;-87
2023/12/29 01:49:15;;;;;;;0.10;0.10;;;9.50;99.90;;;;;;5104275;28;20519;-87
2023/12/29 01:51:42;;;;;;;0.00;0.00;;;8.40;1.00;;;;;;5103874;28;20511;-86
2023/12/29 01:54:08;;;;;;;0.00;0.00;;;9.40;1.00;;;;;;5103928;28;20058;-87
2023/12/29 01:56:34;;;;;;;0.00;0.00;;;8.20;1.00;;;;;;5104147;28;20050;-87
2023/12/29 01:58:59;;;;;;;0.00;0.00;;;8.20;1.00;;;;;;5103256;28;20051;-87
2023/12/29 02:01:26;;;;;;;0.65;0.65;;;8.20;13.00;;;;;;5103116;28;20079;-85
2023/12/29 02:03:52;;;;;;;0.00;0.00;;;8.30;99.90;;;;;;5084798;28;20043;-86
2023/12/29 02:06:19;;;;;;;0.00;0.00;;;8.40;99.90;;;;;;5103352;28;20053;-86
2023/12/29 02:08:45;;;;;;;0.00;0.00;;;8.40;74.50;;;;;;5068138;28;20055;-86
2023/12/29 02:11:11;;;;;;;0.00;0.00;;;8.40;94.70;;;;;;5102740;28;20058;-86
2023/12/29 02:13:36;;;;;;;0.00;0.00;;;9.10;99.90;;;;;;5103225;28;20035;-85
2023/12/29 02:16:11;;;;;;;0.00;0.00;;;7.80;99.90;;;;;;5104242;28;20101;-88
2023/12/29 02:18:38;;;;;;;0.00;0.00;;;7.20;1.00;;;;;;5103419;28;20051;-87
2023/12/29 02:21:04;;;;;;;4.18;1.13;;;6.20;1.00;;;;;;5103106;28;20040;-86
2023/12/29 02:23:30;;;;;;;0.00;0.00;;;5.70;99.90;;;;;;5103174;28;20036;-87
2023/12/29 02:26:02;;;;;;;0.15;0.10;;;5.60;99.90;;;;;;5102969;28;20143;-86
2023/12/29 02:28:28;;;;;;;0.00;0.00;;;5.60;99.90;;;;;;5103118;28;20043;-85
2023/12/29 02:31:09;;;;;;;6.38;2.13;;;5.50;99.90;;;;;;5086346;28;20048;-86
2023/12/29 02:33:40;;;;;;;0.20;0.20;;;5.60;99.90;;;;;;5103907;28;20040;-86
2023/12/29 02:36:06;;;;;;;0.00;0.00;;;5.80;99.90;;;;;;5102520;28;20489;-86
2023/12/29 02:38:32;;;;;;;0.77;0.70;;;5.90;99.90;;;;;;5102913;28;20053;-86
2023/12/29 02:40:58;;;;;;;0.00;0.00;;;6.00;99.90;;;;;;5086111;28;20066;-86
2023/12/29 02:43:24;;;;;;;0.00;0.00;;;6.10;99.90;;;;;;5102892;28;20032;-85
2023/12/29 02:45:50;;;;;;;0.00;0.00;;;6.30;99.90;;;;;;5102954;28;20421;-85
2023/12/29 02:48:15;;;;;;;0.63;0.57;;;6.40;99.90;;;;;;5103307;28;20043;-85
2023/12/29 02:50:41;;;;;;;0.00;0.00;;;6.40;99.90;;;;;;5102229;28;20052;-85
2023/12/29 02:53:07;;;;;;;0.00;0.00;;;6.60;99.90;;;;;;5083782;28;20039;-85
2023/12/29 02:55:33;;;;;;;0.30;0.30;;;6.80;99.90;;;;;;5080443;28;20075;-85
2023/12/29 02:57:58;;;;;;;0.10;0.10;;;6.90;99.90;;;;;;5101604;28;20087;-85
2023/12/29 03:00:24;;;;;;;3.03;1.08;;;7.00;99.90;;;;;;5102739;28;20039;-85
2023/12/29 03:02:50;;;;;;;0.00;0.00;;;7.10;99.90;;;;;;5103241;28;20142;-85
2023/12/29 03:05:15;;;;;;;0.40;0.30;;;7.30;99.90;;;;;;5085002;28;20548;-86
2023/12/29 03:07:41;;;;;;;0.00;0.00;;;8.40;99.90;;;;;;5103265;28;20065;-86
2023/12/29 03:10:07;;;;;;;0.03;0.00;;;7.80;99.90;;;;;;5102819;28;20546;-86
2023/12/29 03:12:33;;;;;;;9.45;1.20;;;8.00;99.90;;;;;;5084871;28;20417;-86
2023/12/29 03:14:59;;;;;;;0.00;0.00;;;8.10;99.90;;;;;;5083865;28;20052;-86
2023/12/29 03:17:24;;;;;;;9.98;1.60;;;8.20;99.90;;;;;;5102932;28;20047;-86
2023/12/29 03:19:50;;;;;;;12.48;1.88;;;8.30;99.90;;;;;;5084958;28;20446;-86
2023/12/29 03:22:16;;;;;;;11.25;0.93;;;8.50;99.90;;;;;;5103198;28;20043;-86
2023/12/29 03:24:45;;;;;;;0.25;0.25;;;8.50;99.90;;;;;;5103767;28;20134;-86
2023/12/29 03:27:10;;;;;;;0.00;0.00;;;8.50;99.90;;;;;;5102774;28;20118;-87
2023/12/29 03:29:36;;;;;;;5.95;0.82;;;8.50;99.90;;;;;;5103283;28;20122;-86
2023/12/29 03:32:02;;;;;;;1.25;0.28;;;8.50;99.90;;;;;;5102842;28;20592;-86
2023/12/29 03:34:28;;;;;;;0.80;0.28;;;8.50;99.90;;;;;;5103612;28;20485;-87
2023/12/29 03:36:53;;;;;;;1.10;0.98;;;8.60;99.90;;;;;;5103520;28;20463;-87
2023/12/29 03:39:19;;;;;;;1.20;0.63;;;8.70;99.90;;;;;;5103458;28;20094;-86
2023/12/29 03:41:45;;;;;;;0.20;0.20;;;8.70;99.90;;;;;;5103015;28;20047;-86
2023/12/29 03:44:11;;;;;;;2.20;1.05;;;8.70;99.90;;;;;;5102760;28;20052;-86
2023/12/29 03:46:36;;;;;;;0.08;0.08;;;8.70;99.90;;;;;;5102885;28;20143;-86
2023/12/29 03:49:02;;;;;;;0.75;0.75;;;8.70;99.90;;;;;;5102238;28;20436;-86
2023/12/29 03:51:29;;;;;;;0.00;0.00;;;8.70;1.00;;;;;;5102550;28;20083;-86
2023/12/29 03:53:54;;;;;;;0.00;0.00;;;8.70;99.90;;;;;;5102456;28;20047;-86
2023/12/29 03:56:20;;;;;;;1.98;0.52;;;8.70;99.90;;;;;;5103105;28;20382;-86
2023/12/29 03:58:46;;;;;;;9.10;2.17;;;8.60;90.90;;;;;;5102842;28;20044;-86
2023/12/29 04:01:17;;;;;;;0.57;0.57;;;8.60;3.10;;;;;;5102872;28;20400;-86
2023/12/29 04:03:43;;;;;;;0.10;0.10;;;8.50;1.00;;;;;;5084621;28;20051;-86
2023/12/29 04:06:09;;;;;;;12.95;0.80;;;8.50;99.90;;;;;;5102934;28;20054;-86
2023/12/29 04:08:35;;;;;;;1.90;1.48;;;8.50;99.90;;;;;;5103395;28;20043;-86
2023/12/29 04:11:01;;;;;;;0.00;0.00;;;8.50;99.90;;;;;;5107063;28;20047;-86
2023/12/29 04:13:27;;;;;;;5.07;0.65;;;8.40;99.90;;;;;;5107251;28;20070;-86
2023/12/29 04:15:53;;;;;;;0.00;0.00;;;8.40;99.90;;;;;;5106928;28;20382;-86
2023/12/29 04:18:23;;;;;;;1.40;1.02;;;8.40;99.90;;;;;;5106794;28;20051;-86
2023/12/29 04:20:49;;;;;;;0.00;0.00;;;8.40;99.90;;;;;;5107063;28;20035;-86
2023/12/29 04:23:14;;;;;;;4.78;1.85;;;8.30;99.90;;;;;;5087873;28;20047;-86
2023/12/29 04:25:40;;;;;;;0.00;0.00;;;8.40;99.90;;;;;;5106693;28;20062;-86
2023/12/29 04:28:09;;;;;;;1.02;0.90;;;8.40;65.10;;;;;;5106804;28;20048;-86
2023/12/29 04:30:35;;;;;;;4.85;1.80;;;8.50;1.00;;;;;;5106202;28;20443;-86
2023/12/29 04:33:01;;;;;;;0.00;0.00;;;8.40;1.00;;;;;;5105945;28;20465;-86
2023/12/29 04:35:26;;;;;;;0.00;0.00;;;8.40;99.90;;;;;;5105866;28;20067;-85
2023/12/29 04:37:52;;;;;;;1.77;1.33;;;8.40;99.90;;;;;;5106280;28;20088;-86
2023/12/29 04:40:18;;;;;;;0.10;0.10;;;8.30;99.90;;;;;;5105847;28;20039;-86
2023/12/29 04:42:43;;;;;;;0.57;0.57;;;8.30;99.90;;;;;;5106485;28;20051;-86
2023/12/29 04:45:10;;;;;;;0.20;0.20;;;8.30;99.90;;;;;;5105763;28;20040;-85
2023/12/29 04:47:36;;;;;;;11.30;2.85;;;8.30;99.90;;;;;;5106374;28;20047;-86
2023/12/29 04:50:02;;;;;;;0.00;0.00;;;8.30;99.90;;;;;;5106053;28;20126;-86
2023/12/29 04:52:27;;;;;;;1.55;1.45;;;8.20;99.90;;;;;;5106186;28;20499;-85
2023/12/29 04:54:53;;;;;;;0.98;0.95;;;8.20;1.00;;;;;;5105946;28;20050;-86
2023/12/29 04:57:19;;;;;;;1.55;0.55;;;8.30;99.90;;;;;;5107243;28;20064;-86
2023/12/29 04:59:44;;;;;;;2.13;1.23;;;8.30;99.90;;;;;;5105691;28;20394;-85
2023/12/29 05:02:10;;;;;;;1.45;0.70;;;8.30;99.90;;;;;;5105900;28;20058;-85
2023/12/29 05:04:37;;;;;;;0.45;0.45;;;8.30;1.00;;;;;;5105706;28;20118;-85
2023/12/29 05:07:05;;;;;;;0.00;0.00;;;8.40;99.90;;;;;;5105791;28;20043;-85
2023/12/29 05:09:30;;;;;;;5.63;1.45;;;8.60;99.90;;;;;;5105622;28;20097;-85
2023/12/29 05:11:56;;;;;;;0.00;0.00;;;8.60;99.90;;;;;;5105623;28;20508;-85
2023/12/29 05:14:21;;;;;;;0.08;0.08;;;8.60;99.90;;;;;;5104728;28;20047;-85
2023/12/29 05:16:47;;;;;;;0.10;0.10;;;8.70;1.00;;;;;;5105520;28;20040;-85
2023/12/29 05:19:12;;;;;;;0.28;0.28;;;8.80;99.90;;;;;;5096269;28;20043;-86
2023/12/29 05:21:38;;;;;;;0.00;0.00;;;8.90;1.00;;;;;;5104210;28;20048;-85
2023/12/29 05:24:05;;;;;;;0.47;0.38;;;8.90;99.90;;;;;;5105463;28;20040;-86
2023/12/29 05:26:31;;;;;;;0.20;0.20;;;9.00;99.90;;;;;;5105623;27;20454;-85
2023/12/29 05:28:56;;;;;;;0.00;0.00;;;9.10;99.90;;;;;;5105805;28;20108;-86
2023/12/29 05:31:22;;;;;;;0.35;0.35;;;9.10;99.90;;;;;;5105265;28;20043;-85
2023/12/29 05:33:48;;;;;;;0.03;0.03;;;9.10;51.70;;;;;;5105380;28;20105;-85
2023/12/29 05:36:14;;;;;;;0.40;0.40;;;8.80;1.50;;;;;;5105073;28;20050;-85
2023/12/29 05:38:41;;;;;;;0.20;0.20;;;9.00;99.90;;;;;;5105078;28;20054;-85
2023/12/29 05:41:07;;;;;;;7.03;3.50;;;9.10;99.90;;;;;;5105479;28;20044;-85
2023/12/29 05:43:34;;;;;;;1.33;0.63;;;9.10;64.10;;;;;;5105289;28;20391;-85
2023/12/29 05:46:00;;;;;;;13.45;1.17;;;9.10;12.60;;;;;;5105660;28;20036;-85
2023/12/29 05:48:26;;;;;;;5.75;1.02;;;9.10;8.80;;;;;;5104916;28;20051;-85
2023/12/29 05:50:52;;;;;;;0.00;0.00;;;9.10;1.00;;;;;;5104606;28;20054;-85
2023/12/29 05:53:18;;;;;;;1.83;1.15;;;9.10;1.00;;;;;;5105307;28;20151;-85
2023/12/29 05:55:44;;;;;;;0.00;0.00;;;9.10;1.00;;;;;;5104578;28;20052;-86
2023/12/29 05:58:09;;;;;;;1.00;0.73;;;9.20;1.00;;;;;;5104728;28;20893;-86
2023/12/29 06:00:37;;;;;;;0.13;0.13;;;9.10;1.00;;;;;;5104315;28;20040;-86
2023/12/29 06:03:04;;;;;;;2.63;0.75;;;9.20;1.00;;;;;;5104855;28;20070;-85
2023/12/29 06:05:30;;;;;;;0.60;0.60;;;9.20;99.90;;;;;;5104517;28;20082;-85
2023/12/29 06:07:56;;;;;;;0.32;0.32;;;9.20;1.00;;;;;;5104205;28;20066;-85
2023/12/29 06:10:21;;;;;;;0.40;0.40;;;9.10;1.00;;;;;;5104440;28;20048;-85
2023/12/29 06:12:47;;;;;;;2.65;2.20;;;9.20;99.90;;;;;;5104350;28;20039;-86
2023/12/29 06:15:14;;;;;;;0.65;0.38;;;9.20;99.90;;;;;;5104212;28;20126;-85
2023/12/29 06:17:40;;;;;;;0.10;0.10;;;9.20;99.90;;;;;;5103778;28;20051;-85
2023/12/29 06:20:07;;;;;;;0.50;0.40;;;9.30;99.90;;;;;;5103823;28;20142;-86
2023/12/29 06:22:33;;;;;;;0.10;0.10;;;9.20;99.90;;;;;;5085813;28;20040;-86
2023/12/29 06:24:59;;;;;;;0.90;0.85;;;9.30;99.90;;;;;;5104329;28;20047;-86
2023/12/29 06:27:25;;;;;;;0.00;0.00;;;9.30;99.90;;;;;;5104085;28;20877;-85
2023/12/29 06:29:51;;;;;;;2.30;0.50;;;9.10;99.90;;;;;;5103985;28;20439;-85
2023/12/29 06:32:17;;;;;;;0.65;0.55;;;9.00;99.90;;;;;;5103436;28;20042;-86
2023/12/29 06:34:43;;;;;;;0.65;0.55;;;9.00;99.90;;;;;;5103197;28;20123;-85
2023/12/29 06:37:08;;;;;;;1.10;0.75;;;8.80;99.90;;;;;;5104137;28;20421;-86
2023/12/29 06:39:34;;;;;;;2.83;0.08;;;8.80;99.90;;;;;;5103480;28;20047;-86
2023/12/29 06:42:00;;;;;;;3.03;1.10;;;8.70;1.00;;;;;;5103605;28;20122;-86
2023/12/29 06:44:25;;;;;;;2.45;1.65;;;8.50;1.00;;;;;;5103850;28;20045;-85
2023/12/29 06:46:51;;;;;;;0.15;0.15;;;8.50;99.90;;;;;;5104229;28;20565;-86
2023/12/29 06:49:17;;;;;;;0.17;0.17;;;8.40;1.00;;;;;;5104474;28;20075;-86
2023/12/29 06:51:42;;;;;;;1.08;0.70;;;8.40;1.00;;;;;;5103597;28;20049;-86
2023/12/29 06:54:08;;;;;;;0.08;0.08;;;8.30;99.90;;;;;;5088102;28;20040;-86
2023/12/29 06:56:34;;;;;;;0.63;0.63;;;8.40;99.90;;;;;;5103975;28;20036;-86
2023/12/29 06:58:59;;;;;;;15.35;0.75;;;8.40;99.90;;;;;;5104145;28;20051;-86
2023/12/29 07:01:40;;;;;;;0.20;0.20;;;8.40;99.90;;;;;;5101182;27;20476;-86
2023/12/29 07:04:09;;;;;;;2.00;1.00;;;8.40;99.90;;;;;;5101183;28;20052;-86
2023/12/29 07:06:36;;;;;;;0.30;0.20;;;8.40;99.90;;;;;;5101107;28;20051;-87
2023/12/29 07:09:02;;;;;;;0.00;0.00;;;8.50;99.90;;;;;;5082717;28;20087;-86
2023/12/29 07:11:28;;;;;;;0.90;0.63;;;8.50;1.00;;;;;;5101475;28;20481;-86
2023/12/29 07:13:54;;;;;;;5.80;1.60;;;8.50;1.00;;;;;;5100767;28;20044;-86
2023/12/29 07:16:20;;;;;;;0.30;0.30;;;8.40;99.90;;;;;;5099381;28;20040;-86
2023/12/29 07:18:46;;;;;;;5.30;1.48;;;8.30;1.00;;;;;;5100589;28;20051;-87
2023/12/29 07:21:12;;;;;;;0.10;0.10;;;8.30;59.50;;;;;;5101563;28;20058;-87
2023/12/29 07:23:38;;;;;;;0.85;0.65;;;8.30;99.90;;;;;;5101010;28;20482;-87
2023/12/29 07:26:04;;;;;;;0.52;0.30;;;8.30;99.90;;;;;;5082955;28;20079;-86
2023/12/29 07:28:32;;;;;;;0.20;0.20;;;8.40;99.90;;;;;;5101525;28;20928;-86
2023/12/29 07:30:58;;;;;;;1.83;1.05;;;8.40;1.00;;;;;;5101128;28;20047;-86
2023/12/29 07:33:24;;;;;;;0.00;0.00;;;8.30;1.00;;;;;;5101210;28;20557;-86
2023/12/29 07:35:50;;;;;;;0.35;0.35;;;8.30;1.00;;;;;;5100324;28;20468;-86
2023/12/29 07:38:16;;;;;;;0.10;0.10;;;8.30;44.60;;;;;;5081847;28;20383;-86
2023/12/29 07:40:41;;;;;;;12.95;0.98;;;8.30;98.40;;;;;;5081949;28;20092;-86
2023/12/29 07:43:07;;;;;;;0.70;0.68;;;8.20;97.80;;;;;;5100683;28;20413;-86
2023/12/29 07:45:33;;;;;;;3.92;1.65;;;8.10;99.90;;;;;;5082172;28;20421;-86
2023/12/29 07:47:59;;;;;;;0.65;0.20;;;8.10;99.90;;;;;;5102433;28;20047;-86
2023/12/29 07:50:24;;;;;;;1.00;0.85;;;8.10;97.70;;;;;;5100952;28;20671;-86
2023/12/29 07:52:50;;;;;;;1.25;1.17;;;8.10;99.90;;;;;;5109253;28;20044;-86
2023/12/29 07:55:18;;;;;;;0.20;0.20;;;8.20;99.90;;;;;;5088797;28;20040;-87
2023/12/29 07:57:46;;;;;;;9.73;0.60;;;8.20;99.90;;;;;;5076736;28;20078;-86
2023/12/29 08:00:14;;;;;;;1.25;0.60;;;8.30;99.90;;;;;;5099408;28;20102;-86
2023/12/29 08:02:40;;;;;;;0.98;0.93;;;8.40;81.90;;;;;;5099383;28;20083;-86
2023/12/29 08:05:08;;;;;;;3.72;2.17;;;8.30;99.90;;;;;;5085002;28;20540;-86
2023/12/29 08:07:34;;;;;;;0.80;0.80;;;8.30;99.90;;;;;;5078417;28;20044;-86
2023/12/29 08:10:00;;;;;;;0.00;0.00;;;8.40;99.90;;;;;;5092245;28;20062;-86
2023/12/29 08:12:26;;;;;;;2.25;1.40;;;8.50;83.00;;;;;;5089476;28;20040;-86
2023/12/29 08:14:51;;;;;;;0.40;0.40;;;8.40;1.00;;;;;;5086726;28;20073;-86
2023/12/29 08:17:17;;;;;;;0.47;0.45;;;8.30;11.00;;;;;;5103721;28;20043;-86
2023/12/29 08:19:43;;;;;;;0.20;0.10;;;8.40;1.00;;;;;;5099301;28;20119;-86
2023/12/29 08:22:09;;;;;;;0.22;0.22;;;8.40;99.90;;;;;;5078316;28;20115;-87
2023/12/29 08:24:35;;;;;;;1.13;1.02;;;8.50;1.00;;;;;;5075595;28;20387;-86
2023/12/29 08:27:03;;;;;;;1.38;0.28;;;8.60;99.90;;;;;;5097012;28;20610;-86
2023/12/29 08:29:28;;;;;;;9.55;1.70;;;8.60;1.00;;;;;;5077152;28;20061;-86
2023/12/29 08:31:54;;;;;;;0.40;0.20;;;8.70;1.00;;;;;;5106470;28;20039;-86
2023/12/29 08:34:20;;;;;;;0.17;0.15;;;8.70;1.00;;;;;;5075928;28;20047;-87
2023/12/29 08:36:45;;;;;;;7.97;2.67;;;8.70;1.00;;;;;;5084567;28;20052;-87
2023/12/29 08:39:12;;;;;;;0.75;0.75;;;8.80;1.00;;;;;;5098970;28;20039;-87
2023/12/29 08:41:37;;;;;;;5.93;2.40;;;8.70;54.70;;;;;;5105092;28;20403;-86
2023/12/29 08:44:03;;;;;;;0.20;0.20;;;8.50;99.90;;;;;;5086690;28;20051;-87
2023/12/29 08:46:29;;;;;;;0.70;0.63;;;8.50;1.00;;;;;;5104962;28;20500;-86
2023/12/29 08:48:55;;;;;;;19.60;2.25;;;8.60;99.90;;;;;;5104824;28;20055;-86
2023/12/29 08:51:20;;;;;;;0.10;0.10;;;8.70;99.90;;;;;;5091266;28;20123;-86
2023/12/29 08:53:46;;;;;;;0.80;0.52;;;8.70;99.90;;;;;;5084844;28;20040;-86
2023/12/29 08:56:13;;;;;;;0.00;0.00;;;8.70;99.90;;;;;;5092544;28;20127;-86
2023/12/29 08:58:40;;;;;;;0.68;0.68;;;8.70;1.00;;;;;;5099277;28;20047;-86
2023/12/29 09:01:06;;;;;;;4.95;1.98;;;8.70;1.00;;;;;;5094346;28;20485;-86
2023/12/29 09:03:31;;;;;;;10.15;1.50;;;8.60;1.00;;;;;;5088720;28;20143;-86
2023/12/29 09:05:58;;;;;;;1.92;1.13;;;8.60;1.00;;;;;;5104476;28;20051;-86
2023/12/29 09:08:24;;;;;;;0.60;0.60;;;8.50;62.50;;;;;;5095642;28;20044;-86
2023/12/29 09:10:50;;;;;;;5.63;2.35;;;8.50;99.90;;;;;;5104524;28;20099;-86
2023/12/29 09:13:15;;;;;;;10.13;2.92;;;8.60;53.50;;;;;;5094277;28;20044;-86
2023/12/29 09:15:41;;;;;;;1.27;0.68;;;8.70;1.00;;;;;;5082855;28;20048;-86
2023/12/29 09:18:07;;;;;;;0.00;0.00;;;8.70;99.90;;;;;;5090162;28;20063;-86
2023/12/29 09:20:32;;;;;;;0.15;0.15;;;8.70;99.90;;;;;;5065641;28;20351;-86
2023/12/29 09:22:58;;;;;;;0.57;0.55;;;8.80;99.90;;;;;;5084404;28;20040;-86
2023/12/29 09:25:23;;;;;;;0.00;0.00;;;8.90;1.00;;;;;;5049206;28;20041;-86
2023/12/29 09:27:52;;;;;;;0.45;0.45;;;9.00;64.80;;;;;;5063503;28;20170;-86
2023/12/29 09:30:18;;;;;;;1.05;0.95;;;10.00;1.00;;;;;;5063724;28;20078;-86
2023/12/29 09:32:44;;;;;;;3.67;1.73;;;9.30;99.90;;;;;;5064405;28;20122;-86
2023/12/29 09:35:09;;;;;;;0.30;0.20;;;9.30;99.90;;;;;;5079482;28;20444;-85
2023/12/29 09:37:35;;;;;;;0.20;0.20;;;10.10;29.10;;;;;;5083717;28;20047;-85
2023/12/29 09:40:01;;;;;;;6.55;2.97;;;9.30;37.90;;;;;;5092029;28;20052;-86
2023/12/29 09:42:28;;;;;;;1.45;0.85;;;9.40;1.00;;;;;;5073717;28;20088;-85
2023/12/29 09:44:54;;;;;;;2.17;1.75;;;9.30;93.90;;;;;;5049544;28;20048;-85
2023/12/29 09:47:23;;;;;;;0.00;0.00;;;9.30;99.90;;;;;;5104389;28;20053;-85
2023/12/29 09:49:49;;;;;;;5.30;1.67;;;9.30;99.90;;;;;;5086824;28;20052;-85
2023/12/29 09:52:16;;;;;;;4.47;1.55;;;9.30;99.90;;;;;;5104264;28;20416;-85
2023/12/29 09:54:42;;;;;;;0.55;0.55;;;9.30;99.90;;;;;;5098451;28;20043;-85
2023/12/29 09:57:09;;;;;;;2.05;1.52;;;8.60;99.90;;;;;;5103350;28;20079;-85
2023/12/29 09:59:38;;;;;;;0.80;0.80;;;9.30;1.00;;;;;;5087907;28;20095;-85
2023/12/29 10:02:05;;;;;;;0.05;0.05;;;9.30;1.00;;;;;;5083175;28;20409;-85
2023/12/29 10:04:31;;;;;;;0.65;0.65;;;9.40;99.90;;;;;;5080006;28;20055;-85
2023/12/29 10:07:03;;;;;;;7.80;0.43;;;9.60;99.90;;;;;;5092765;28;20401;-85
2023/12/29 10:09:30;;;;;;;0.75;0.75;;;9.40;99.90;;;;;;5084725;28;20040;-86
2023/12/29 10:11:57;;;;;;;3.30;1.70;;;9.50;99.90;;;;;;5081587;28;20131;-85
2023/12/29 10:14:34;;;;;;;0.10;0.10;;;9.50;99.90;;;;;;5101193;28;20086;-85
2023/12/29 10:17:32;;;;;;;5.13;1.17;;;9.50;99.90;;;;;;5054596;28;20051;-86
2023/12/29 10:20:06;;;;;;;;;;;9.60;67.80;;;;;;5052841;28;20056;-86
2023/12/29 10:23:21;;;;;;;3.10;1.95;;;9.60;99.90;;;;;;5055567;28;19930;-86
2023/12/29 10:25:49;;;;;;;0.30;0.30;;;9.70;55.20;;;;;;5059330;28;20070;-87
2023/12/29 10:28:18;;;;;;;0.00;0.00;;;11.20;99.90;;;;;;5088687;28;20184;-87
2023/12/29 10:30:43;;;;;;;0.95;0.52;;;9.90;99.90;;;;;;5091064;28;20063;-87
2023/12/29 10:33:09;;;;;;;0.10;0.10;;;9.90;99.90;;;;;;5081559;28;20048;-86
2023/12/29 10:35:37;;;;;;;2.08;1.00;;;10.00;99.90;;;;;;5083197;28;20094;-85
2023/12/29 10:38:13;;;;;;;0.82;0.70;;;9.90;99.90;;;;;;5069172;28;20051;-85
2023/12/29 10:40:39;;;;;;;0.15;0.15;;;9.90;99.90;;;;;;5101185;28;20066;-86
2023/12/29 10:43:08;;;;;;;4.40;1.75;;;9.90;68.30;;;;;;5093991;28;20039;-86
2023/12/29 10:45:34;;;;;;;6.40;2.70;;;10.40;1.00;;;;;;5092231;28;20077;-86
2023/12/29 10:48:01;;;;;;;0.05;0.05;;;10.00;1.00;;;;;;5063115;28;20059;-86
2023/12/29 10:50:27;;;;;;;0.65;0.43;;;9.90;1.00;;;;;;5088932;28;20134;-86
2023/12/29 10:53:18;;;;;;;0.32;0.32;;;9.70;80.70;;;;;;5089637;28;20055;-86
2023/12/29 10:55:46;;;;;;;0.00;0.00;;;9.40;99.90;;;;;;5086274;28;20078;-87
2023/12/29 10:58:15;;;;;;;0.70;0.70;;;9.30;1.00;;;;;;5082378;28;20334;-88
2023/12/29 11:00:41;;;;;;;0.15;0.13;;;9.70;99.90;;;;;;5047282;28;20062;-87
2023/12/29 11:03:07;;;;;;;0.00;0.00;;;9.90;99.90;;;;;;5064462;28;20051;-86
2023/12/29 11:05:33;;;;;;;19.08;0.88;;;9.10;99.90;;;;;;5082395;28;20079;-88
2023/12/29 11:07:59;;;;;;;0.35;0.35;;;8.90;99.90;;;;;;5065094;28;20471;-87
2023/12/29 11:10:25;;;;;;;0.68;0.52;;;8.70;99.90;;;;;;5082983;28;20115;-87
2023/12/29 11:12:52;;;;;;;0.00;0.00;;;8.70;99.90;;;;;;5087817;28;20435;-87
2023/12/29 11:15:17;;;;;;;2.03;1.45;;;8.50;99.90;;;;;;5101936;28;20050;-86
2023/12/29 11:17:49;;;;;;;1.38;0.57;;;8.40;99.90;;;;;;5086044;28;20043;-87
2023/12/29 11:20:16;;;;;;;0.00;0.00;;;8.40;99.90;;;;;;5084573;28;20061;-88
2023/12/29 11:22:43;;;;;;;0.22;0.22;;;9.00;99.90;;;;;;5102643;28;20044;-87
2023/12/29 11:25:11;;;;;;;0.25;0.25;;;9.80;1.00;;;;;;5084524;28;20078;-87
2023/12/29 11:27:38;;;;;;;0.70;0.70;;;8.60;1.00;;;;;;5102277;28;20047;-87
2023/12/29 11:30:05;;;;;;;6.35;1.55;;;8.60;99.90;;;;;;5084327;28;20382;-87
2023/12/29 11:32:42;;;;;;;2.60;1.35;;;8.50;99.90;;;;;;5093122;28;20048;-87
2023/12/29 11:35:37;;;;;;;1.40;0.82;;;8.50;99.90;;;;;;5081709;28;20051;-88
2023/12/29 11:38:30;;;;;;;2.42;1.98;;;8.50;99.90;;;;;;5081798;28;20047;-88
2023/12/29 11:41:21;;;;;;;1.55;0.85;;;8.60;99.90;;;;;;5084277;28;20040;-87
2023/12/29 11:43:59;;;;;;;1.45;1.08;;;8.60;99.90;;;;;;5099314;28;20062;-87
2023/12/29 11:46:39;;;;;;;0.63;0.63;;;8.60;99.90;;;;;;5101924;28;20051;-87
2023/12/29 11:49:05;;;;;;;0.30;0.13;;;8.50;99.90;;;;;;5085387;28;20119;-87
2023/12/29 11:51:32;;;;;;;0.45;0.45;;;8.50;99.90;;;;;;5088085;28;20547;-87
2023/12/29 11:53:59;;;;;;;0.00;0.00;;;8.40;36.90;;;;;;5066973;28;20405;-88
2023/12/29 11:56:29;;;;;;;0.20;0.20;;;8.40;99.90;;;;;;5099161;28;20109;-87
2023/12/29 11:58:55;;;;;;;0.00;0.00;;;8.20;1.00;;;;;;5095310;28;20106;-87
2023/12/29 12:01:35;;;;;;;0.10;0.03;;;8.40;99.90;;;;;;5084956;28;20136;-87
2023/12/29 12:04:01;;;;;;;0.00;0.00;;;8.40;99.90;;;;;;5084625;28;20072;-87
2023/12/29 12:06:40;;;;;;;2.65;1.98;;;8.40;99.90;;;;;;5085027;28;20527;-87
2023/12/29 12:09:26;;;;;;;0.10;0.10;;;8.50;99.90;;;;;;5049137;28;20050;-87
2023/12/29 12:11:52;;;;;;;;;;;8.60;99.90;;;;;;5085307;28;20123;-87
2023/12/29 12:14:49;;;;;;;2.00;1.13;;;8.60;99.90;;;;;;5093742;28;20504;-87
2023/12/29 12:17:34;;;;;;;3.00;0.13;;;8.70;99.90;;;;;;5096987;28;20044;-87
2023/12/29 12:20:10;;;;;;;0.93;0.65;;;8.70;99.90;;;;;;5089261;28;20393;-87
2023/12/29 12:22:36;;;;;;;1.85;0.28;;;8.80;99.90;;;;;;5094254;28;20052;-87
2023/12/29 12:25:03;;;;;;;0.08;0.00;;;9.00;99.90;;;;;;5091695;28;20420;-87
2023/12/29 12:27:31;;;;;;;0.10;0.10;;;9.20;99.90;;;;;;5073543;28;20056;-87
2023/12/29 12:29:59;;;;;;;0.30;0.25;;;9.30;99.90;;;;;;5081416;28;20189;-87
2023/12/29 12:32:29;;;;;;;1.35;0.32;;;9.10;99.90;;;;;;5074929;28;20044;-86
2023/12/29 12:34:55;;;;;;;0.20;0.20;;;9.70;99.90;;;;;;5065870;28;20186;-86
2023/12/29 12:37:26;;;;;;;0.50;0.50;;;9.00;99.90;;;;;;5090871;28;20610;-87
2023/12/29 12:39:52;;;;;;;0.00;0.00;;;9.00;99.90;;;;;;5048636;28;20052;-86
2023/12/29 12:42:19;;;;;;;14.50;1.67;;;9.10;99.90;;;;;;5092734;28;20135;-86
2023/12/29 12:45:10;;;;;;;0.00;0.00;;;9.10;99.90;;;;;;5094353;28;20048;-86
2023/12/29 12:47:50;;;;;;;0.00;0.00;;;9.20;99.90;;;;;;5088054;28;20048;-86
2023/12/29 12:50:16;;;;;;;0.85;0.45;;;9.20;99.90;;;;;;5073720;28;20036;-86
2023/12/29 12:52:42;;;;;;;0.63;0.38;;;9.30;93.00;;;;;;5096954;28;20047;-85
2023/12/29 12:55:09;;;;;;;0.57;0.43;;;9.40;91.50;;;;;;5085829;28;20043;-85
2023/12/29 12:57:36;;;;;;;0.20;0.13;;;9.40;83.00;;;;;;5092726;28;20043;-85
2023/12/29 13:00:05;;;;;;;0.00;0.00;;;9.50;47.00;;;;;;5105214;28;20098;-86
2023/12/29 13:02:32;;;;;;;0.47;0.47;;;9.50;99.90;;;;;;5061569;28;20127;-85